createdAt,value
2018-01-13T00:02:19.440Z,23.63
2018-01-13T00:04:49.038Z,24.10
2018-01-13T00:07:18.645Z,23.00
2018-01-13T00:09:48.217Z,23.10
2018-01-13T00:12:17.807Z,22.53
2018-01-13T00:14:47.414Z,23.77
2018-01-13T00:17:17.008Z,23.97
2018-01-13T00:19:46.590Z,23.30
2018-01-13T00:22:16.151Z,23.13
2018-01-13T00:24:45.754Z,23.00
2018-01-13T00:27:15.636Z,23.33
2018-01-13T00:29:45.221Z,22.27
2018-01-13T00:32:14.834Z,20.00
2018-01-13T00:34:44.428Z,22.50
2018-01-13T00:37:14.039Z,20.77
2018-01-13T00:39:43.669Z,21.57
2018-01-13T00:42:13.265Z,20.03
2018-01-13T00:44:42.853Z,21.10
2018-01-13T00:47:12.439Z,18.93
2018-01-13T00:49:42.028Z,20.80
2018-01-13T00:52:11.631Z,19.63
2018-01-13T00:54:41.220Z,20.67
2018-01-13T00:57:10.828Z,22.13
2018-01-13T00:59:43.936Z,21.73
2018-01-13T01:02:13.580Z,21.57
2018-01-13T01:04:43.152Z,23.03
2018-01-13T01:07:12.730Z,24.23
2018-01-13T01:09:42.329Z,22.13
2018-01-13T01:12:11.926Z,23.87
2018-01-13T01:14:41.526Z,22.20
2018-01-13T01:17:11.115Z,23.47
2018-01-13T01:19:40.701Z,24.00
2018-01-13T01:22:10.297Z,30.53
2018-01-13T01:24:39.891Z,28.63
2018-01-13T01:27:09.498Z,27.83
2018-01-13T01:29:39.081Z,24.33
2018-01-13T01:32:08.675Z,23.20
2018-01-13T01:34:38.271Z,24.47
2018-01-13T01:37:07.946Z,26.97
2018-01-13T01:39:37.537Z,33.03
2018-01-13T01:42:07.263Z,25.13
2018-01-13T01:44:36.888Z,31.43
2018-01-13T01:47:06.477Z,35.93
2018-01-13T01:49:36.068Z,33.93
2018-01-13T01:52:05.660Z,30.83
2018-01-13T01:54:35.221Z,29.30
2018-01-13T01:57:04.822Z,26.47
2018-01-13T01:59:34.419Z,25.87
2018-01-13T02:02:04.018Z,26.23
2018-01-13T02:04:33.616Z,25.43
2018-01-13T02:07:03.197Z,22.87
2018-01-13T02:09:32.782Z,26.30
2018-01-13T02:12:02.370Z,24.70
2018-01-13T02:14:31.958Z,24.17
2018-01-13T02:17:01.526Z,24.23
2018-01-13T02:19:31.076Z,24.57
2018-01-13T02:22:00.668Z,24.00
2018-01-13T02:24:30.250Z,21.83
2018-01-13T02:26:59.814Z,22.43
2018-01-13T02:29:29.378Z,22.50
2018-01-13T02:31:58.940Z,22.70
2018-01-13T02:34:28.578Z,19.13
2018-01-13T02:36:58.225Z,21.10
2018-01-13T02:39:27.819Z,20.43
2018-01-13T02:41:57.407Z,20.60
2018-01-13T02:44:27.029Z,21.47
2018-01-13T02:46:56.613Z,20.20
2018-01-13T02:49:26.223Z,21.10
2018-01-13T02:51:55.812Z,21.23
2018-01-13T02:54:25.388Z,20.97
2018-01-13T02:56:54.959Z,19.93
2018-01-13T02:59:24.542Z,21.10
2018-01-13T03:01:54.143Z,20.47
2018-01-13T03:04:23.726Z,20.10
2018-01-13T03:06:53.315Z,20.27
2018-01-13T03:09:22.905Z,18.97
2018-01-13T03:11:52.498Z,18.97
2018-01-13T03:14:22.041Z,19.57
2018-01-13T03:16:51.637Z,19.43
2018-01-13T03:19:21.197Z,17.13
2018-01-13T03:21:50.778Z,16.80
2018-01-13T03:24:20.370Z,19.00
2018-01-13T03:26:49.986Z,18.20
2018-01-13T03:29:19.572Z,18.10
2018-01-13T03:31:49.150Z,17.57
2018-01-13T03:34:18.714Z,19.97
2018-01-13T03:36:48.318Z,18.73
2018-01-13T03:39:17.901Z,19.37
2018-01-13T03:41:47.476Z,20.83
2018-01-13T03:44:17.052Z,19.73
2018-01-13T03:46:46.667Z,19.13
2018-01-13T03:49:16.255Z,18.97
2018-01-13T03:51:45.867Z,18.60
2018-01-13T03:54:15.453Z,19.90
2018-01-13T03:56:45.078Z,18.00
2018-01-13T03:59:14.700Z,18.03
2018-01-13T04:01:44.271Z,19.13
2018-01-13T04:04:13.901Z,19.13
2018-01-13T04:06:43.465Z,19.80
2018-01-13T04:09:13.065Z,15.93
2018-01-13T04:11:42.658Z,16.97
2018-01-13T04:14:12.251Z,13.50
2018-01-13T04:16:41.846Z,11.90
2018-01-13T04:19:11.426Z,11.73
2018-01-13T04:21:40.986Z,12.07
2018-01-13T04:24:10.586Z,12.20
2018-01-13T04:26:40.155Z,11.47
2018-01-13T04:29:09.718Z,11.93
2018-01-13T04:31:39.304Z,14.20
2018-01-13T04:34:08.906Z,13.60
2018-01-13T04:36:38.527Z,13.30
2018-01-13T04:39:08.087Z,10.63
2018-01-13T04:41:37.682Z,11.80
2018-01-13T04:44:07.252Z,12.53
2018-01-13T04:46:36.828Z,11.83
2018-01-13T04:49:06.418Z,11.63
2018-01-13T04:51:35.994Z,12.43
2018-01-13T04:54:05.588Z,12.40
2018-01-13T04:56:35.148Z,11.70
2018-01-13T04:59:04.749Z,12.27
2018-01-13T05:01:34.354Z,16.13
2018-01-13T05:04:03.936Z,18.40
2018-01-13T05:06:33.530Z,17.13
2018-01-13T05:09:03.105Z,15.87
2018-01-13T05:11:32.676Z,16.13
2018-01-13T05:14:02.271Z,12.43
2018-01-13T05:16:31.853Z,14.07
2018-01-13T05:19:01.466Z,13.93
2018-01-13T05:21:31.069Z,14.00
2018-01-13T05:24:00.685Z,13.07
2018-01-13T05:26:30.257Z,13.23
2018-01-13T05:28:59.866Z,12.50
2018-01-13T05:31:29.479Z,13.10
2018-01-13T05:33:59.046Z,12.90
2018-01-13T05:36:28.622Z,12.33
2018-01-13T05:38:58.220Z,12.23
2018-01-13T05:41:27.790Z,11.67
2018-01-13T05:43:57.399Z,12.27
2018-01-13T05:46:26.976Z,10.97
2018-01-13T05:48:56.552Z,11.23
2018-01-13T05:51:26.137Z,11.20
2018-01-13T05:53:55.708Z,10.97
2018-01-13T05:56:25.300Z,11.67
2018-01-13T05:58:54.877Z,11.43
2018-01-13T06:01:24.342Z,11.67
2018-01-13T06:03:53.914Z,12.27
2018-01-13T06:06:23.489Z,11.70
2018-01-13T06:08:53.113Z,12.97
2018-01-13T06:11:22.718Z,13.30
2018-01-13T06:13:52.314Z,11.80
2018-01-13T06:16:21.897Z,13.93
2018-01-13T06:18:51.468Z,12.87
2018-01-13T06:21:21.072Z,13.73
2018-01-13T06:23:50.674Z,14.10
2018-01-13T06:26:20.262Z,14.90
2018-01-13T06:28:49.858Z,16.20
2018-01-13T06:31:19.454Z,17.37
2018-01-13T06:33:49.043Z,16.60
2018-01-13T06:36:18.637Z,15.03
2018-01-13T06:38:48.232Z,14.17
2018-01-13T06:41:17.827Z,15.60
2018-01-13T06:43:47.426Z,13.63
2018-01-13T06:46:17.010Z,13.90
2018-01-13T06:48:46.598Z,14.90
2018-01-13T06:51:16.241Z,14.47
2018-01-13T06:53:45.848Z,15.70
2018-01-13T06:56:15.413Z,14.00
2018-01-13T06:58:44.993Z,15.07
2018-01-13T07:01:14.577Z,15.57
2018-01-13T07:03:44.172Z,17.13
2018-01-13T07:06:13.635Z,15.00
2018-01-13T07:08:43.270Z,18.80
2018-01-13T07:11:13.074Z,17.67
2018-01-13T07:13:42.659Z,16.63
2018-01-13T07:16:12.269Z,17.27
2018-01-13T07:18:41.873Z,18.27
2018-01-13T07:21:11.457Z,18.57
2018-01-13T07:23:41.026Z,17.67
2018-01-13T07:26:10.609Z,17.40
2018-01-13T07:28:40.223Z,17.30
2018-01-13T07:31:09.814Z,19.10
2018-01-13T07:33:39.382Z,18.03
2018-01-13T07:36:08.977Z,16.73
2018-01-13T07:38:38.568Z,17.53
2018-01-13T07:41:08.152Z,23.90
2018-01-13T07:43:37.753Z,39.20
2018-01-13T07:46:07.347Z,25.90
2018-01-13T07:48:36.946Z,26.17
2018-01-13T07:51:06.514Z,24.60
2018-01-13T07:53:41.876Z,26.17
2018-01-13T07:56:11.491Z,22.20
2018-01-13T07:58:41.066Z,21.60
2018-01-13T08:01:10.680Z,23.30
2018-01-13T08:03:40.473Z,23.37
2018-01-13T08:06:09.907Z,25.60
2018-01-13T08:08:39.346Z,25.53
2018-01-13T08:11:08.922Z,27.03
2018-01-13T08:13:38.518Z,28.03
2018-01-13T08:16:07.112Z,22.57
2018-01-13T08:18:36.429Z,24.17
2018-01-13T08:21:05.008Z,25.50
2018-01-13T08:23:34.320Z,30.93
2018-01-13T08:26:03.640Z,27.03
2018-01-13T08:28:32.215Z,29.70
2018-01-13T08:31:01.562Z,30.60
2018-01-13T08:33:30.141Z,26.40
2018-01-13T08:35:58.741Z,28.93
2018-01-13T08:38:27.321Z,28.40
2018-01-13T08:40:55.892Z,29.27
2018-01-13T08:43:24.479Z,25.20
2018-01-13T08:45:53.072Z,24.33
2018-01-13T08:48:21.635Z,24.87
2018-01-13T08:50:50.218Z,24.20
2018-01-13T08:53:18.799Z,24.80
2018-01-13T08:55:47.389Z,22.57
2018-01-13T08:58:15.804Z,24.00
2018-01-13T09:00:44.212Z,23.93
2018-01-13T09:03:12.618Z,24.50
2018-01-13T09:05:41.082Z,23.73
2018-01-13T09:08:09.492Z,26.80
2018-01-13T09:10:38.049Z,27.57
2018-01-13T09:13:06.623Z,30.23
2018-01-13T09:15:35.219Z,31.77
2018-01-13T09:18:03.841Z,30.10
2018-01-13T09:20:32.428Z,35.17
2018-01-13T09:23:01.012Z,45.57
2018-01-13T09:25:29.574Z,57.47
2018-01-13T09:27:58.143Z,30.33
2018-01-13T09:30:26.761Z,29.23
2018-01-13T09:32:56.194Z,30.53
2018-01-13T09:35:24.760Z,29.37
2018-01-13T09:37:53.344Z,30.47
2018-01-13T09:40:21.904Z,28.63
2018-01-13T09:42:50.479Z,30.33
2018-01-13T09:45:19.049Z,27.70
2018-01-13T09:47:47.609Z,28.17
2018-01-13T09:50:16.280Z,27.23
2018-01-13T09:52:44.864Z,28.37
2018-01-13T09:55:13.428Z,34.53
2018-01-13T09:57:42.784Z,35.47
2018-01-13T10:00:12.059Z,33.53
2018-01-13T10:02:40.597Z,49.17
2018-01-13T10:05:09.201Z,44.17
2018-01-13T10:07:37.791Z,39.67
2018-01-13T10:10:07.100Z,25.50
2018-01-13T10:12:36.436Z,23.13
2018-01-13T10:15:05.046Z,26.33
2018-01-13T10:17:33.612Z,25.53
2018-01-13T10:20:02.287Z,25.73
2018-01-13T10:22:30.976Z,31.67
2018-01-13T10:24:59.597Z,29.60
2018-01-13T10:27:28.201Z,23.47
2018-01-13T10:29:56.859Z,23.33
2018-01-13T10:32:25.518Z,23.00
2018-01-13T10:34:54.111Z,25.27
2018-01-13T10:37:22.691Z,50.93
2018-01-13T10:39:51.263Z,44.70
2018-01-13T10:42:20.647Z,40.17
2018-01-13T10:44:49.237Z,33.13
2018-01-13T10:47:17.830Z,24.63
2018-01-13T10:49:46.387Z,20.77
2018-01-13T10:52:14.982Z,98.37
2018-01-13T10:54:43.777Z,45.30
2018-01-13T10:57:12.429Z,26.83
2018-01-13T10:59:40.737Z,18.00
2018-01-13T11:02:09.297Z,17.83
2018-01-13T11:04:37.935Z,19.13
2018-01-13T11:07:06.535Z,19.17
2018-01-13T11:09:38.020Z,20.43
2018-01-13T11:12:06.612Z,18.33
2018-01-13T11:14:44.669Z,18.00
2018-01-13T11:17:13.461Z,18.63
2018-01-13T11:19:42.040Z,17.33
2018-01-13T11:22:10.626Z,17.93
2018-01-13T11:24:39.183Z,16.87
2018-01-13T11:27:07.718Z,16.47
2018-01-13T11:29:37.088Z,17.07
2018-01-13T11:32:09.639Z,14.67
2018-01-13T11:34:38.208Z,15.10
2018-01-13T11:37:06.795Z,14.23
2018-01-13T11:39:35.374Z,14.17
2018-01-13T11:42:05.868Z,12.73
2018-01-13T11:44:34.458Z,13.43
2018-01-13T11:47:03.006Z,11.43
2018-01-13T11:49:31.625Z,11.27
2018-01-13T11:52:00.278Z,13.93
2018-01-13T11:54:30.913Z,14.43
2018-01-13T11:56:59.486Z,17.50
2018-01-13T11:59:28.050Z,14.33
2018-01-13T12:01:56.683Z,12.10
2018-01-13T12:04:25.316Z,13.63
2018-01-13T12:06:54.635Z,12.07
2018-01-13T12:09:23.213Z,11.93
2018-01-13T12:11:52.687Z,13.33
2018-01-13T12:14:21.278Z,11.53
2018-01-13T12:16:49.887Z,12.17
2018-01-13T12:19:19.191Z,23.17
2018-01-13T12:21:48.568Z,18.27
2018-01-13T12:24:17.193Z,12.63
2018-01-13T12:26:45.785Z,13.27
2018-01-13T12:29:14.367Z,18.17
2018-01-13T12:31:42.925Z,17.67
2018-01-13T12:34:12.422Z,19.10
2018-01-13T12:36:46.553Z,14.60
2018-01-13T12:39:15.129Z,19.90
2018-01-13T12:41:43.687Z,19.70
2018-01-13T12:44:12.291Z,15.07
2018-01-13T12:46:40.978Z,15.10
2018-01-13T12:49:09.561Z,23.77
2018-01-13T12:51:38.162Z,14.57
2018-01-13T12:54:06.760Z,13.47
2018-01-13T12:56:36.104Z,14.23
2018-01-13T12:59:06.732Z,20.17
2018-01-13T13:01:35.308Z,13.90
2018-01-13T13:04:03.892Z,17.33
2018-01-13T13:06:32.490Z,14.93
2018-01-13T13:09:01.089Z,16.37
2018-01-13T13:11:29.656Z,13.90
2018-01-13T13:13:58.284Z,16.73
2018-01-13T13:16:26.881Z,15.17
2018-01-13T13:18:55.484Z,17.60
2018-01-13T13:21:24.056Z,14.07
2018-01-13T13:23:52.645Z,14.47
2018-01-13T13:26:21.294Z,14.17
2018-01-13T13:28:49.883Z,21.83
2018-01-13T13:31:18.345Z,23.50
2018-01-13T13:33:46.919Z,24.20
2018-01-13T13:36:15.546Z,25.67
2018-01-13T13:38:43.814Z,20.50
2018-01-13T13:41:12.430Z,12.63
2018-01-13T13:43:41.011Z,20.33
2018-01-13T13:46:09.687Z,24.50
2018-01-13T13:48:38.264Z,18.57
2018-01-13T13:51:06.775Z,14.40
2018-01-13T13:53:35.351Z,15.20
2018-01-13T13:56:05.088Z,16.00
2018-01-13T13:58:33.645Z,17.63
2018-01-13T14:01:28.507Z,17.20
2018-01-13T14:03:43.633Z,14.90
2018-01-13T14:06:18.109Z,15.50
2018-01-13T14:08:49.752Z,20.53
2018-01-13T14:11:25.773Z,16.30
2018-01-13T14:13:54.343Z,24.83
2018-01-13T14:16:22.939Z,20.43
2018-01-13T14:18:51.543Z,23.53
2018-01-13T14:21:26.209Z,17.90
2018-01-13T14:23:54.783Z,18.47
2018-01-13T14:26:24.138Z,17.73
2018-01-13T14:28:54.744Z,31.07
2018-01-13T14:31:24.006Z,17.20
2018-01-13T14:33:52.557Z,14.70
2018-01-13T14:36:21.157Z,16.33
2018-01-13T14:38:49.731Z,12.73
2018-01-13T14:41:18.288Z,15.47
2018-01-13T14:43:46.922Z,15.20
2018-01-13T14:46:15.923Z,17.87
2018-01-13T14:48:44.570Z,18.73
2018-01-13T14:51:13.626Z,15.17
2018-01-13T14:53:43.083Z,13.60
2018-01-13T14:56:11.692Z,16.97
2018-01-13T14:58:40.276Z,15.33
2018-01-13T15:01:09.193Z,14.53
2018-01-13T15:03:37.813Z,14.40
2018-01-13T15:06:06.432Z,14.67
2018-01-13T15:08:35.022Z,20.00
2018-01-13T15:11:03.602Z,23.93
2018-01-13T15:13:32.271Z,20.33
2018-01-13T15:16:04.599Z,24.03
2018-01-13T15:18:33.951Z,19.93
2018-01-13T15:21:02.533Z,14.63
2018-01-13T15:23:31.147Z,16.60
2018-01-13T15:25:59.821Z,16.77
2018-01-13T15:28:28.414Z,16.50
2018-01-13T15:30:56.987Z,14.77
2018-01-13T15:33:25.683Z,15.87
2018-01-13T15:35:54.264Z,18.17
2018-01-13T15:38:22.827Z,18.70
2018-01-13T15:40:51.397Z,18.50
2018-01-13T15:43:20.750Z,17.30
2018-01-13T15:45:49.016Z,17.93
2018-01-13T15:48:17.615Z,16.67
2018-01-13T15:50:50.602Z,16.00
2018-01-13T15:53:19.403Z,15.10
2018-01-13T15:55:47.976Z,15.37
2018-01-13T15:58:17.942Z,15.83
2018-01-13T16:00:46.624Z,16.80
2018-01-13T16:03:15.189Z,16.13
2018-01-13T16:05:43.767Z,16.47
2018-01-13T16:08:12.357Z,19.37
2018-01-13T16:10:40.963Z,16.03
2018-01-13T16:13:10.617Z,16.47
2018-01-13T16:15:39.182Z,17.47
2018-01-13T16:18:08.541Z,16.70
2018-01-13T16:20:37.114Z,15.73
2018-01-13T16:23:05.720Z,14.87
2018-01-13T16:25:34.304Z,15.03
2018-01-13T16:28:02.887Z,16.10
2018-01-13T16:30:31.672Z,15.30
2018-01-13T16:33:00.267Z,16.03
2018-01-13T16:35:28.792Z,16.33
2018-01-13T16:37:57.397Z,16.10
2018-01-13T16:40:26.023Z,14.30
2018-01-13T16:42:55.695Z,16.23
2018-01-13T16:45:24.311Z,15.57
2018-01-13T16:47:52.913Z,14.20
2018-01-13T16:50:21.477Z,15.57
2018-01-13T16:52:50.082Z,12.50
2018-01-13T16:55:18.678Z,12.87
2018-01-13T16:57:47.322Z,14.30
2018-01-13T17:00:15.924Z,15.27
2018-01-13T17:02:44.504Z,15.60
2018-01-13T17:05:13.019Z,16.17
2018-01-13T17:07:41.592Z,15.83
2018-01-13T17:10:10.175Z,18.40
2018-01-13T17:12:38.752Z,15.37
2018-01-13T17:15:07.341Z,17.23
2018-01-13T17:17:35.942Z,17.13
2018-01-13T17:20:04.475Z,14.60
2018-01-13T17:22:33.035Z,14.70
2018-01-13T17:25:01.630Z,15.40
2018-01-13T17:27:30.924Z,16.07
2018-01-13T17:29:59.507Z,14.13
2018-01-13T17:32:28.079Z,15.47
2018-01-13T17:34:56.649Z,14.93
2018-01-13T17:37:25.228Z,14.07
2018-01-13T17:39:54.057Z,15.87
2018-01-13T17:42:22.653Z,13.77
2018-01-13T17:44:52.008Z,14.70
2018-01-13T17:47:20.608Z,14.47
2018-01-13T17:49:49.149Z,14.33
2018-01-13T17:52:17.753Z,15.30
2018-01-13T17:54:46.328Z,16.90
2018-01-13T17:57:14.878Z,15.20
2018-01-13T17:59:44.236Z,14.03
2018-01-13T18:02:12.820Z,15.13
2018-01-13T18:04:41.388Z,15.70
2018-01-13T18:07:09.975Z,17.37
2018-01-13T18:09:38.524Z,16.27
2018-01-13T18:12:07.108Z,16.93
2018-01-13T18:14:35.686Z,16.53
2018-01-13T18:17:04.292Z,16.13
2018-01-13T18:19:32.965Z,16.83
2018-01-13T18:22:01.563Z,15.83
2018-01-13T18:24:30.353Z,15.43
2018-01-13T18:26:58.922Z,14.90
2018-01-13T18:29:27.610Z,14.70
2018-01-13T18:31:56.205Z,14.93
2018-01-13T18:34:24.775Z,14.00
2018-01-13T18:36:53.391Z,14.80
2018-01-13T18:39:21.979Z,14.03
2018-01-13T18:41:50.513Z,12.80
2018-01-13T18:44:19.869Z,13.97
2018-01-13T18:46:54.824Z,13.73
2018-01-13T18:49:23.296Z,13.73
2018-01-13T18:51:51.903Z,13.23
2018-01-13T18:54:20.500Z,13.63
2018-01-13T18:56:49.170Z,13.70
2018-01-13T18:59:17.726Z,13.37
2018-01-13T19:01:47.070Z,15.20
2018-01-13T19:04:15.706Z,14.40
2018-01-13T19:06:44.317Z,16.70
2018-01-13T19:09:14.680Z,15.20
2018-01-13T19:11:43.243Z,16.20
2018-01-13T19:14:11.849Z,17.07
2018-01-13T19:16:41.205Z,16.63
2018-01-13T19:19:10.891Z,15.50
2018-01-13T19:21:40.074Z,15.70
2018-01-13T19:24:08.754Z,16.93
2018-01-13T19:26:37.390Z,15.83
2018-01-13T19:29:05.986Z,14.30
2018-01-13T19:31:34.551Z,14.83
2018-01-13T19:34:03.784Z,14.70
2018-01-13T19:36:32.488Z,13.70
2018-01-13T19:39:01.518Z,13.77
2018-01-13T19:44:24.023Z,15.23
2018-01-13T19:46:53.409Z,13.87
2018-01-13T19:49:21.963Z,15.07
2018-01-13T19:51:50.529Z,17.67
2018-01-13T19:54:29.418Z,24.43
2018-01-13T19:56:58.020Z,12.27
2018-01-13T19:59:27.592Z,17.10
2018-01-13T20:01:56.226Z,16.50
2018-01-13T20:04:32.473Z,12.67
2018-01-13T20:07:01.077Z,12.93
2018-01-13T20:09:33.967Z,13.23
2018-01-13T20:12:02.550Z,16.70
2018-01-13T20:14:31.094Z,12.97
2018-01-13T20:16:59.691Z,12.80
2018-01-13T20:19:28.335Z,13.37
2018-01-13T20:21:57.048Z,12.57
2018-01-13T20:24:25.613Z,12.00
2018-01-13T20:26:54.220Z,15.10
2018-01-13T20:29:22.803Z,13.43
2018-01-13T20:31:51.373Z,13.27
2018-01-13T20:34:19.965Z,13.40
2018-01-13T20:36:48.565Z,15.77
2018-01-13T20:39:17.155Z,12.30
2018-01-13T20:41:45.758Z,14.00
2018-01-13T20:44:14.325Z,13.23
2018-01-13T20:46:42.933Z,14.17
2018-01-13T20:49:11.532Z,14.30
2018-01-13T20:51:46.800Z,13.77
2018-01-13T20:54:15.377Z,11.43
2018-01-13T20:56:44.726Z,15.20
2018-01-13T20:59:13.315Z,13.80
2018-01-13T21:01:41.955Z,12.73
2018-01-13T21:04:10.557Z,12.37
2018-01-13T21:06:38.608Z,17.27
2018-01-13T21:09:07.257Z,15.13
2018-01-13T21:11:35.802Z,16.77
2018-01-13T21:14:04.473Z,14.90
2018-01-13T21:16:33.082Z,14.83
2018-01-13T21:19:01.677Z,18.80
2018-01-13T21:21:30.334Z,16.30
2018-01-13T21:23:59.791Z,13.60
2018-01-13T21:26:28.361Z,13.70
2018-01-13T21:28:56.953Z,14.23
2018-01-13T21:31:25.522Z,12.53
2018-01-13T21:33:54.106Z,15.73
2018-01-13T21:36:22.675Z,15.47
2018-01-13T21:38:51.280Z,15.97
2018-01-13T21:41:19.854Z,11.93
2018-01-13T21:43:48.456Z,11.60
2018-01-13T21:46:17.132Z,14.50
2018-01-13T21:48:45.531Z,14.07
2018-01-13T21:51:14.145Z,14.70
2018-01-13T21:53:42.750Z,14.03
2018-01-13T21:56:11.358Z,13.80
2018-01-13T21:58:39.964Z,13.77
2018-01-13T22:01:08.534Z,13.30
2018-01-13T22:03:37.857Z,13.53
2018-01-13T22:06:06.626Z,12.70
2018-01-13T22:08:35.200Z,13.67
2018-01-13T22:11:04.541Z,13.37
2018-01-13T22:13:40.663Z,13.80
2018-01-13T22:16:19.857Z,13.07
2018-01-13T22:18:48.448Z,10.53
2018-01-13T22:21:17.021Z,10.67
2018-01-13T22:23:45.538Z,11.20
2018-01-13T22:26:14.102Z,12.03
2018-01-13T22:28:42.668Z,15.00
2018-01-13T22:31:11.227Z,11.80
2018-01-13T22:33:40.609Z,11.23
2018-01-13T22:36:09.225Z,12.83
2018-01-13T22:38:37.777Z,11.70
2018-01-13T22:41:06.413Z,12.50
2018-01-13T22:43:35.753Z,13.37
2018-01-13T22:46:04.353Z,12.03
2018-01-13T22:48:32.949Z,12.27
2018-01-13T22:51:01.569Z,10.77
2018-01-13T22:53:30.109Z,12.20
2018-01-13T22:55:58.684Z,12.30
2018-01-13T22:58:27.260Z,11.53
2018-01-13T23:00:55.868Z,11.20
2018-01-13T23:03:24.485Z,11.90
2018-01-13T23:05:53.950Z,12.67
2018-01-13T23:08:22.546Z,11.90
2018-01-13T23:10:51.131Z,11.97
2018-01-13T23:13:23.744Z,11.07
2018-01-13T23:15:52.339Z,9.97
2018-01-13T23:18:20.918Z,10.80
2018-01-13T23:20:50.260Z,11.43
2018-01-13T23:23:25.813Z,12.03
2018-01-13T23:25:54.396Z,14.77
2018-01-13T23:28:22.984Z,17.00
2018-01-13T23:30:51.772Z,12.17
2018-01-13T23:33:20.384Z,12.50
2018-01-13T23:35:48.943Z,15.80
2018-01-13T23:38:17.515Z,23.87
2018-01-13T23:40:46.131Z,21.10
2018-01-13T23:43:14.656Z,14.67
2018-01-13T23:45:44.042Z,14.20
2018-01-13T23:48:12.626Z,14.90
2018-01-13T23:50:41.186Z,14.30
2018-01-13T23:53:09.844Z,13.03
2018-01-13T23:55:43.239Z,13.43
2018-01-13T23:58:11.854Z,14.60
